createdAt,value
2019-03-15T00:01:31.835Z,1.55
2019-03-15T00:03:59.863Z,2.05
2019-03-15T00:06:28.113Z,2.05
2019-03-15T00:08:57.342Z,2.12
2019-03-15T00:11:25.426Z,1.90
2019-03-15T00:13:53.794Z,1.60
2019-03-15T00:16:22.872Z,1.45
2019-03-15T00:18:50.891Z,1.70
2019-03-15T00:21:20.119Z,1.60
2019-03-15T00:23:49.111Z,1.70
2019-03-15T00:26:17.132Z,1.70
2019-03-15T00:28:45.077Z,2.15
2019-03-15T00:31:13.111Z,1.62
2019-03-15T00:33:41.574Z,1.80
2019-03-15T00:36:09.518Z,1.60
2019-03-15T00:38:37.690Z,1.40
2019-03-15T00:41:05.726Z,1.77
2019-03-15T00:43:33.683Z,1.72
2019-03-15T00:46:01.651Z,1.70
2019-03-15T00:48:29.666Z,1.77
2019-03-15T00:50:57.544Z,1.70
2019-03-15T00:53:25.575Z,1.25
2019-03-15T00:55:53.533Z,1.42
2019-03-15T00:58:21.480Z,1.82
2019-03-15T01:00:50.525Z,1.77
2019-03-15T01:03:19.335Z,1.77
2019-03-15T01:05:47.291Z,1.95
2019-03-15T01:08:15.290Z,2.10
2019-03-15T01:10:43.323Z,1.90
2019-03-15T01:13:12.609Z,1.80
2019-03-15T01:15:41.448Z,2.12
2019-03-15T01:18:09.601Z,2.15
2019-03-15T01:20:37.895Z,2.10
2019-03-15T01:23:05.869Z,1.80
2019-03-15T01:25:33.941Z,2.35
2019-03-15T01:28:01.910Z,2.17
2019-03-15T01:30:29.945Z,2.30
2019-03-15T01:32:58.263Z,2.22
2019-03-15T01:35:26.486Z,2.33
2019-03-15T01:37:54.472Z,2.10
2019-03-15T01:40:22.551Z,2.20
2019-03-15T01:42:50.709Z,2.00
2019-03-15T01:45:18.666Z,2.35
2019-03-15T01:47:46.734Z,1.90
2019-03-15T01:50:14.797Z,2.60
2019-03-15T01:52:42.765Z,1.98
2019-03-15T01:55:10.965Z,2.20
2019-03-15T01:57:39.079Z,2.55
2019-03-15T02:00:06.997Z,2.47
2019-03-15T02:02:34.940Z,2.83
2019-03-15T02:05:02.904Z,2.55
2019-03-15T02:07:30.903Z,2.47
2019-03-15T02:09:58.889Z,2.77
2019-03-15T02:12:26.919Z,2.87
2019-03-15T02:14:54.898Z,2.45
2019-03-15T02:17:22.836Z,2.60
2019-03-15T02:19:51.027Z,2.77
2019-03-15T02:22:20.205Z,2.20
2019-03-15T02:24:48.152Z,2.55
2019-03-15T02:27:16.059Z,2.50
2019-03-15T02:29:44.089Z,2.15
2019-03-15T02:32:12.888Z,2.80
2019-03-15T02:34:41.175Z,2.20
2019-03-15T02:37:09.108Z,1.90
2019-03-15T02:39:37.079Z,2.20
2019-03-15T02:42:06.086Z,2.65
2019-03-15T02:44:34.466Z,2.20
2019-03-15T02:47:02.563Z,2.35
2019-03-15T02:49:30.474Z,2.10
2019-03-15T02:51:59.567Z,2.22
2019-03-15T02:54:28.422Z,1.92
2019-03-15T02:56:56.466Z,1.90
2019-03-15T02:59:24.471Z,1.62
2019-03-15T03:01:52.457Z,1.22
2019-03-15T03:04:20.675Z,1.57
2019-03-15T03:06:48.712Z,1.52
2019-03-15T03:09:16.756Z,1.77
2019-03-15T03:11:44.790Z,1.60
2019-03-15T03:14:12.826Z,1.95
2019-03-15T03:16:41.298Z,1.90
2019-03-15T03:19:09.233Z,1.45
2019-03-15T03:21:38.622Z,1.85
2019-03-15T03:24:06.663Z,1.90
2019-03-15T03:26:34.681Z,1.75
2019-03-15T03:29:02.598Z,1.52
2019-03-15T03:31:30.554Z,1.80
2019-03-15T03:33:58.523Z,1.60
2019-03-15T03:36:26.745Z,1.72
2019-03-15T03:38:54.811Z,1.90
2019-03-15T03:41:23.875Z,1.52
2019-03-15T03:43:52.009Z,1.85
2019-03-15T03:46:20.169Z,1.75
2019-03-15T03:48:48.105Z,1.95
2019-03-15T03:51:16.154Z,1.82
2019-03-15T03:53:44.364Z,1.40
2019-03-15T03:56:12.473Z,1.60
2019-03-15T03:58:40.408Z,1.90
2019-03-15T04:01:08.591Z,1.70
2019-03-15T04:03:37.628Z,1.75
2019-03-15T04:06:05.655Z,1.60
2019-03-15T04:08:33.636Z,1.77
2019-03-15T04:11:01.605Z,1.77
2019-03-15T04:13:29.632Z,1.60
2019-03-15T04:15:57.948Z,2.20
2019-03-15T04:18:26.023Z,1.60
2019-03-15T04:20:54.075Z,1.72
2019-03-15T04:23:22.010Z,1.72
2019-03-15T04:25:50.084Z,2.40
2019-03-15T04:28:19.018Z,1.65
2019-03-15T04:30:47.001Z,1.90
2019-03-15T04:33:15.070Z,1.60
2019-03-15T04:35:43.000Z,2.22
2019-03-15T04:38:10.983Z,1.40
2019-03-15T04:40:40.010Z,1.80
2019-03-15T04:43:09.036Z,1.80
2019-03-15T04:45:37.378Z,1.67
2019-03-15T04:48:05.350Z,2.00
2019-03-15T04:50:33.428Z,1.70
2019-03-15T04:53:01.529Z,1.50
2019-03-15T04:55:29.766Z,1.60
2019-03-15T04:57:57.788Z,1.90
2019-03-15T05:00:26.307Z,1.70
2019-03-15T05:02:54.440Z,1.60
2019-03-15T05:05:23.602Z,1.30
2019-03-15T05:07:51.634Z,1.50
2019-03-15T05:10:19.923Z,1.22
2019-03-15T05:12:48.370Z,1.57
2019-03-15T05:15:16.671Z,1.37
2019-03-15T05:17:44.773Z,1.40
2019-03-15T05:20:12.748Z,1.75
2019-03-15T05:22:43.175Z,1.30
2019-03-15T05:25:12.210Z,2.10
2019-03-15T05:27:40.324Z,1.90
2019-03-15T05:30:09.256Z,1.85
2019-03-15T05:32:37.240Z,1.90
2019-03-15T05:35:05.168Z,1.80
2019-03-15T05:37:33.157Z,2.00
2019-03-15T05:40:01.317Z,1.60
2019-03-15T05:42:31.822Z,1.87
2019-03-15T05:44:59.919Z,2.08
2019-03-15T05:47:28.906Z,2.00
2019-03-15T05:49:56.857Z,1.80
2019-03-15T05:52:24.985Z,1.70
2019-03-15T05:54:53.457Z,2.02
2019-03-15T05:57:21.437Z,2.08
2019-03-15T05:59:49.384Z,1.77
2019-03-15T06:02:17.367Z,1.90
2019-03-15T06:04:45.437Z,2.10
2019-03-15T06:07:13.810Z,2.02
2019-03-15T06:09:41.797Z,2.00
2019-03-15T06:12:09.775Z,2.40
2019-03-15T06:14:37.700Z,2.25
2019-03-15T06:17:06.619Z,1.55
2019-03-15T06:19:34.630Z,2.30
2019-03-15T06:22:02.572Z,1.90
2019-03-15T06:24:30.814Z,2.37
2019-03-15T06:26:58.835Z,3.12
2019-03-15T06:29:26.788Z,2.80
2019-03-15T06:31:54.947Z,2.40
2019-03-15T06:34:22.891Z,2.42
2019-03-15T06:36:50.842Z,1.87
2019-03-15T06:39:18.900Z,2.20
2019-03-15T06:41:46.810Z,2.52
2019-03-15T06:44:14.749Z,1.77
2019-03-15T06:46:42.941Z,1.70
2019-03-15T06:49:10.942Z,2.33
2019-03-15T06:51:38.918Z,1.80
2019-03-15T06:54:11.812Z,1.75
2019-03-15T06:56:37.835Z,2.00
2019-03-15T06:59:05.843Z,1.85
2019-03-15T07:01:34.048Z,1.65
2019-03-15T07:04:01.996Z,2.00
2019-03-15T07:06:29.929Z,3.50
2019-03-15T07:08:57.881Z,9.60
2019-03-15T07:11:25.813Z,10.40
2019-03-15T07:13:54.920Z,13.58
2019-03-15T07:16:22.872Z,10.30
2019-03-15T07:18:50.850Z,3.77
2019-03-15T07:21:18.786Z,4.33
2019-03-15T07:23:51.318Z,2.58
2019-03-15T07:26:18.935Z,2.52
2019-03-15T07:28:47.336Z,3.02
2019-03-15T07:31:16.379Z,3.02
2019-03-15T07:33:44.345Z,3.62
2019-03-15T07:39:07.131Z,2.90
2019-03-15T07:41:39.243Z,3.30
2019-03-15T07:44:05.989Z,3.60
2019-03-15T07:46:34.191Z,3.12
2019-03-15T07:49:02.316Z,3.90
2019-03-15T07:51:30.791Z,3.02
2019-03-15T07:53:58.923Z,3.20
2019-03-15T07:56:28.673Z,3.00
2019-03-15T07:58:56.880Z,3.00
2019-03-15T08:01:25.100Z,3.00
2019-03-15T08:03:55.463Z,2.75
2019-03-15T08:06:34.129Z,3.83
2019-03-15T08:08:53.424Z,3.27
2019-03-15T08:11:21.496Z,3.10
2019-03-15T08:13:49.491Z,2.83
2019-03-15T08:16:17.532Z,3.00
2019-03-15T08:18:45.775Z,3.22
2019-03-15T08:21:13.753Z,2.77
2019-03-15T08:23:42.934Z,2.67
2019-03-15T08:26:11.005Z,2.10
2019-03-15T08:28:39.022Z,2.37
2019-03-15T08:31:07.087Z,2.57
2019-03-15T08:33:41.496Z,2.30
2019-03-15T08:36:09.622Z,2.10
2019-03-15T08:38:47.258Z,2.53
2019-03-15T08:41:08.058Z,2.77
2019-03-15T08:43:36.035Z,2.40
2019-03-15T08:46:05.519Z,2.83
2019-03-15T08:48:33.478Z,2.50
2019-03-15T08:51:01.809Z,2.90
2019-03-15T08:53:29.963Z,2.90
2019-03-15T08:55:57.997Z,2.37
2019-03-15T08:58:26.239Z,2.33
2019-03-15T09:00:54.361Z,2.40
2019-03-15T09:03:27.881Z,2.10
2019-03-15T09:05:52.991Z,2.40
2019-03-15T09:08:20.999Z,2.20
2019-03-15T09:10:54.879Z,2.37
2019-03-15T09:13:23.723Z,2.60
2019-03-15T09:15:51.635Z,2.20
2019-03-15T09:18:19.540Z,2.43
2019-03-15T09:20:47.854Z,2.30
2019-03-15T09:23:16.149Z,3.60
2019-03-15T09:25:44.321Z,2.70
2019-03-15T09:28:13.169Z,1.90
2019-03-15T09:30:41.249Z,2.13
2019-03-15T09:33:09.424Z,2.47
2019-03-15T09:35:37.268Z,2.13
2019-03-15T09:38:05.182Z,2.53
2019-03-15T09:40:33.417Z,2.30
2019-03-15T09:43:01.342Z,2.63
2019-03-15T09:45:29.291Z,2.57
2019-03-15T09:47:57.733Z,2.77
2019-03-15T09:50:36.106Z,3.07
2019-03-15T09:52:55.226Z,2.80
2019-03-15T09:55:32.925Z,2.70
2019-03-15T09:57:52.662Z,2.77
2019-03-15T10:00:20.583Z,2.80
2019-03-15T10:02:48.495Z,3.00
2019-03-15T10:05:16.454Z,3.30
2019-03-15T10:07:44.392Z,2.63
2019-03-15T10:10:14.505Z,3.30
2019-03-15T10:12:42.848Z,2.80
2019-03-15T10:15:10.698Z,2.80
2019-03-15T10:17:38.729Z,2.60
2019-03-15T10:20:06.697Z,2.93
2019-03-15T10:22:34.597Z,3.27
2019-03-15T10:25:02.610Z,2.27
2019-03-15T10:27:30.992Z,2.70
2019-03-15T10:29:58.900Z,2.80
2019-03-15T10:32:26.886Z,2.60
2019-03-15T10:34:54.760Z,2.90
2019-03-15T10:37:22.664Z,2.97
2019-03-15T10:39:50.674Z,2.90
2019-03-15T10:42:18.666Z,3.17
2019-03-15T10:44:46.574Z,3.50
2019-03-15T10:47:14.607Z,2.90
2019-03-15T10:49:42.597Z,3.00
2019-03-15T10:52:10.609Z,3.47
2019-03-15T10:54:38.545Z,3.00
2019-03-15T10:57:06.468Z,3.57
2019-03-15T10:59:34.427Z,2.90
2019-03-15T11:02:02.374Z,2.73
2019-03-15T11:04:30.280Z,3.87
2019-03-15T11:06:58.214Z,2.77
2019-03-15T11:09:26.268Z,4.10
2019-03-15T11:11:54.453Z,3.60
2019-03-15T11:14:22.377Z,3.17
2019-03-15T11:16:50.307Z,4.63
2019-03-15T11:19:18.285Z,3.50
2019-03-15T11:21:46.322Z,3.47
2019-03-15T11:24:14.513Z,3.67
2019-03-15T11:26:42.573Z,3.30
2019-03-15T11:29:10.496Z,4.30
2019-03-15T11:31:38.444Z,5.63
2019-03-15T11:34:07.350Z,5.03
2019-03-15T11:36:35.256Z,4.80
2019-03-15T11:39:09.837Z,4.13
2019-03-15T11:41:40.897Z,4.20
2019-03-15T11:44:09.277Z,3.00
2019-03-15T11:46:37.244Z,3.40
2019-03-15T11:49:05.227Z,2.70
2019-03-15T11:51:33.181Z,3.40
2019-03-15T11:54:01.182Z,3.83
2019-03-15T11:56:29.156Z,3.40
2019-03-15T11:58:59.161Z,3.10
2019-03-15T12:01:28.376Z,3.10
2019-03-15T12:03:56.332Z,3.30
2019-03-15T12:06:24.382Z,3.33
2019-03-15T12:08:52.356Z,3.03
2019-03-15T12:11:20.287Z,3.50
2019-03-15T12:13:48.204Z,3.00
2019-03-15T12:16:16.396Z,3.20
2019-03-15T12:18:44.278Z,2.90
2019-03-15T12:21:12.276Z,3.47
2019-03-15T12:23:40.269Z,2.77
2019-03-15T12:26:10.111Z,3.27
2019-03-15T12:28:37.722Z,3.03
2019-03-15T12:31:05.708Z,2.90
2019-03-15T12:33:34.671Z,2.50
2019-03-15T12:36:03.528Z,2.50
2019-03-15T12:38:31.567Z,3.30
2019-03-15T12:40:59.475Z,3.23
2019-03-15T12:43:27.559Z,2.90
2019-03-15T12:45:55.471Z,2.80
2019-03-15T12:48:23.549Z,3.00
2019-03-15T12:50:51.538Z,2.80
2019-03-15T12:53:19.452Z,3.10
2019-03-15T12:55:47.639Z,3.00
2019-03-15T12:58:15.567Z,3.10
2019-03-15T13:00:43.490Z,3.17
2019-03-15T13:03:11.631Z,2.90
2019-03-15T13:05:39.547Z,3.10
2019-03-15T13:08:08.439Z,3.43
2019-03-15T13:10:36.852Z,3.50
2019-03-15T13:13:04.876Z,3.40
2019-03-15T13:15:33.420Z,3.80
2019-03-15T13:18:01.350Z,3.30
2019-03-15T13:20:29.420Z,2.80
2019-03-15T13:22:57.342Z,3.10
2019-03-15T13:25:25.235Z,2.93
2019-03-15T13:27:56.015Z,2.80
2019-03-15T13:30:23.992Z,2.63
2019-03-15T13:32:52.869Z,2.67
2019-03-15T13:35:20.935Z,2.60
2019-03-15T13:37:48.877Z,2.10
2019-03-15T13:40:16.737Z,2.17
2019-03-15T13:42:44.935Z,2.60
2019-03-15T13:45:13.379Z,2.10
2019-03-15T13:47:41.465Z,2.20
2019-03-15T13:50:09.415Z,2.60
2019-03-15T13:52:37.352Z,2.47
2019-03-15T13:55:05.479Z,2.80
2019-03-15T13:57:34.655Z,2.17
2019-03-15T14:00:02.542Z,2.63
2019-03-15T14:02:30.782Z,2.33
2019-03-15T14:04:58.935Z,2.20
2019-03-15T14:07:26.868Z,2.57
2019-03-15T14:09:55.854Z,2.83
2019-03-15T14:12:23.903Z,1.87
2019-03-15T14:14:51.848Z,2.77
2019-03-15T14:17:19.931Z,2.20
2019-03-15T14:19:47.936Z,2.03
2019-03-15T14:22:16.951Z,2.13
2019-03-15T14:24:44.888Z,2.67
2019-03-15T14:27:12.990Z,2.70
2019-03-15T14:29:40.904Z,1.70
2019-03-15T14:32:08.876Z,2.10
2019-03-15T14:34:36.810Z,2.40
2019-03-15T14:37:05.847Z,2.43
2019-03-15T14:39:33.979Z,2.50
2019-03-15T14:42:02.355Z,2.53
2019-03-15T14:44:30.447Z,2.40
2019-03-15T14:46:58.393Z,2.20
2019-03-15T14:49:26.490Z,2.27
2019-03-15T14:51:54.434Z,2.93
2019-03-15T14:54:22.332Z,3.07
2019-03-15T14:56:50.641Z,2.40
2019-03-15T14:59:18.722Z,2.70
2019-03-15T15:01:46.685Z,2.70
2019-03-15T15:04:16.332Z,2.60
2019-03-15T15:06:44.398Z,2.73
2019-03-15T15:09:12.382Z,2.50
2019-03-15T15:11:40.806Z,3.70
2019-03-15T15:14:08.725Z,2.57
2019-03-15T15:16:36.743Z,2.80
2019-03-15T15:19:04.655Z,2.83
2019-03-15T15:21:32.554Z,2.60
2019-03-15T15:24:01.583Z,2.63
2019-03-15T15:26:29.563Z,2.40
2019-03-15T15:28:57.540Z,2.53
2019-03-15T15:31:25.461Z,2.50
2019-03-15T15:33:53.384Z,2.53
2019-03-15T15:36:21.317Z,2.50
2019-03-15T15:38:49.228Z,3.40
2019-03-15T15:41:17.241Z,2.67
2019-03-15T15:43:45.168Z,3.00
2019-03-15T15:46:13.054Z,2.90
2019-03-15T15:48:41.190Z,2.97
2019-03-15T15:51:09.162Z,2.00
2019-03-15T15:53:37.094Z,2.80
2019-03-15T15:56:05.144Z,2.40
2019-03-15T15:58:33.716Z,2.63
2019-03-15T16:01:01.616Z,2.40
2019-03-15T16:03:30.677Z,2.53
2019-03-15T16:05:58.679Z,2.87
2019-03-15T16:08:26.648Z,2.70
2019-03-15T16:10:54.595Z,2.53
2019-03-15T16:13:22.582Z,2.50
2019-03-15T16:15:50.521Z,2.47
2019-03-15T16:18:18.432Z,2.90
2019-03-15T16:20:46.368Z,2.40
2019-03-15T16:23:14.481Z,2.70
2019-03-15T16:25:42.408Z,3.00
2019-03-15T16:28:10.368Z,2.60
2019-03-15T16:30:38.282Z,2.40
2019-03-15T16:33:06.243Z,3.47
2019-03-15T16:35:34.185Z,2.50
2019-03-15T16:38:02.086Z,2.83
2019-03-15T16:40:30.027Z,2.50
2019-03-15T16:42:57.932Z,2.53
2019-03-15T16:45:25.893Z,2.87
2019-03-15T16:47:53.771Z,3.90
2019-03-15T16:50:21.814Z,2.67
2019-03-15T16:52:49.744Z,2.80
2019-03-15T16:55:17.633Z,2.80
2019-03-15T16:57:45.621Z,2.63
2019-03-15T17:00:13.632Z,2.50
2019-03-15T17:02:41.534Z,3.50
2019-03-15T17:05:09.449Z,2.43
2019-03-15T17:07:37.402Z,3.20
2019-03-15T17:10:05.382Z,2.50
2019-03-15T17:12:33.305Z,3.23
2019-03-15T17:15:01.252Z,2.80
2019-03-15T17:17:29.197Z,2.63
2019-03-15T17:19:57.230Z,2.53
2019-03-15T17:22:25.166Z,2.33
2019-03-15T17:24:53.152Z,3.37
2019-03-15T17:27:21.188Z,2.67
2019-03-15T17:29:49.139Z,2.40
2019-03-15T17:32:17.118Z,2.70
2019-03-15T17:34:45.185Z,2.30
2019-03-15T17:37:13.139Z,2.10
2019-03-15T17:39:43.921Z,2.87
2019-03-15T17:42:10.677Z,3.00
2019-03-15T17:44:38.643Z,2.87
2019-03-15T17:47:06.792Z,2.70
2019-03-15T17:49:34.724Z,2.37
2019-03-15T17:52:02.927Z,3.00
2019-03-15T17:54:30.918Z,2.30
2019-03-15T17:56:58.827Z,3.07
2019-03-15T17:59:26.805Z,2.73
2019-03-15T18:01:54.802Z,3.10
2019-03-15T18:04:22.928Z,2.53
2019-03-15T18:06:51.144Z,3.00
2019-03-15T18:09:20.211Z,2.20
2019-03-15T18:11:48.141Z,2.10
2019-03-15T18:14:16.057Z,2.80
2019-03-15T18:16:44.163Z,2.43
2019-03-15T18:19:12.109Z,3.07
2019-03-15T18:21:40.037Z,2.80
2019-03-15T18:24:07.912Z,2.73
2019-03-15T18:26:35.950Z,2.57
2019-03-15T18:29:03.910Z,2.53
2019-03-15T18:31:31.970Z,2.73
2019-03-15T18:33:59.944Z,3.20
2019-03-15T18:36:27.895Z,3.90
2019-03-15T18:38:55.773Z,3.10
2019-03-15T18:41:23.713Z,2.60
2019-03-15T18:43:51.628Z,3.20
2019-03-15T18:46:20.599Z,3.40
2019-03-15T18:48:48.619Z,3.33
2019-03-15T18:51:16.523Z,2.60
2019-03-15T18:53:44.477Z,2.92
2019-03-15T18:56:12.390Z,2.90
2019-03-15T18:58:41.500Z,2.90
2019-03-15T19:01:09.769Z,3.50
2019-03-15T19:03:37.739Z,2.75
2019-03-15T19:06:05.652Z,3.37
2019-03-15T19:08:33.670Z,3.15
2019-03-15T19:11:01.609Z,3.37
2019-03-15T19:13:29.606Z,3.72
2019-03-15T19:15:57.578Z,3.33
2019-03-15T19:18:25.711Z,2.90
2019-03-15T19:21:11.808Z,3.47
2019-03-15T19:23:39.742Z,3.10
2019-03-15T19:26:08.046Z,3.90
2019-03-15T19:28:36.049Z,3.15
2019-03-15T19:31:04.012Z,3.15
2019-03-15T19:33:32.374Z,3.30
2019-03-15T19:36:00.325Z,4.05
2019-03-15T19:38:28.311Z,3.40
2019-03-15T19:40:56.269Z,3.60
2019-03-15T19:43:24.229Z,4.90
2019-03-15T19:45:52.150Z,4.25
2019-03-15T19:48:20.127Z,4.03
2019-03-15T19:50:48.088Z,5.15
2019-03-15T19:53:16.337Z,4.83
2019-03-15T19:55:44.283Z,3.95
2019-03-15T19:58:12.468Z,4.37
2019-03-15T20:00:40.383Z,4.30
2019-03-15T20:03:08.695Z,4.60
2019-03-15T20:05:36.794Z,3.67
2019-03-15T20:08:04.921Z,3.62
2019-03-15T20:10:33.279Z,4.30
2019-03-15T20:13:02.602Z,2.77
2019-03-15T20:15:30.875Z,4.25
2019-03-15T20:17:58.944Z,4.05
2019-03-15T20:20:27.193Z,3.20
2019-03-15T20:22:55.119Z,4.15
2019-03-15T20:25:24.190Z,3.87
2019-03-15T20:27:52.148Z,3.65
2019-03-15T20:30:25.979Z,3.77
2019-03-15T20:32:50.722Z,3.20
2019-03-15T20:35:18.824Z,3.35
2019-03-15T20:37:46.878Z,3.42
2019-03-15T20:40:14.734Z,3.52
2019-03-15T20:42:42.658Z,3.80
2019-03-15T20:45:10.549Z,3.90
2019-03-15T20:47:38.858Z,3.90
2019-03-15T20:50:07.185Z,3.92
2019-03-15T20:52:43.083Z,3.37
2019-03-15T20:55:11.162Z,3.33
2019-03-15T20:57:39.135Z,3.50
2019-03-15T21:00:07.256Z,3.83
2019-03-15T21:02:35.281Z,3.90
2019-03-15T21:05:03.185Z,4.00
2019-03-15T21:07:31.075Z,3.33
2019-03-15T21:09:59.092Z,3.05
2019-03-15T21:12:27.290Z,3.30
2019-03-15T21:14:55.326Z,3.55
2019-03-15T21:17:23.643Z,3.47
2019-03-15T21:19:51.721Z,3.47
2019-03-15T21:22:19.689Z,3.47
2019-03-15T21:24:49.824Z,2.92
2019-03-15T21:27:17.957Z,3.27
2019-03-15T21:29:45.918Z,3.33
2019-03-15T21:32:14.788Z,4.05
2019-03-15T21:34:42.988Z,3.77
2019-03-15T21:37:10.932Z,3.72
2019-03-15T21:39:38.911Z,3.20
2019-03-15T21:42:06.858Z,3.62
2019-03-15T21:44:34.792Z,3.25
2019-03-15T21:47:02.796Z,4.00
2019-03-15T21:49:30.890Z,3.62
2019-03-15T21:51:58.843Z,3.62
2019-03-15T21:54:26.869Z,3.95
2019-03-15T21:56:54.768Z,4.22
2019-03-15T21:59:22.687Z,3.35
2019-03-15T22:01:50.586Z,3.50
2019-03-15T22:04:18.507Z,4.97
2019-03-15T22:06:46.483Z,3.98
2019-03-15T22:09:14.395Z,4.15
2019-03-15T22:11:42.355Z,3.90
2019-03-15T22:14:10.418Z,3.75
2019-03-15T22:16:38.397Z,3.50
2019-03-15T22:19:06.359Z,3.20
2019-03-15T22:21:34.330Z,3.10
2019-03-15T22:24:02.272Z,3.65
2019-03-15T22:26:30.260Z,6.70
2019-03-15T22:28:58.231Z,4.40
2019-03-15T22:31:26.198Z,4.58
2019-03-15T22:33:54.332Z,4.22
2019-03-15T22:36:22.351Z,4.15
2019-03-15T22:38:50.310Z,4.45
2019-03-15T22:41:18.454Z,3.87
2019-03-15T22:43:46.506Z,4.00
2019-03-15T22:46:15.472Z,3.85
2019-03-15T22:48:43.449Z,4.40
2019-03-15T22:51:11.386Z,4.83
2019-03-15T22:53:39.290Z,3.77
2019-03-15T22:56:07.358Z,4.42
2019-03-15T22:58:35.295Z,3.95
2019-03-15T23:01:03.449Z,4.10
2019-03-15T23:03:31.716Z,4.03
2019-03-15T23:05:59.670Z,4.50
2019-03-15T23:08:27.612Z,5.00
2019-03-15T23:10:55.525Z,3.40
2019-03-15T23:13:23.542Z,4.10
2019-03-15T23:15:51.504Z,4.00
2019-03-15T23:18:19.624Z,4.28
2019-03-15T23:20:47.779Z,4.72
2019-03-15T23:23:23.788Z,4.78
2019-03-15T23:25:46.438Z,4.42
2019-03-15T23:28:14.533Z,4.53
2019-03-15T23:30:42.432Z,4.28
2019-03-15T23:33:10.535Z,4.35
2019-03-15T23:35:53.025Z,4.70
2019-03-15T23:38:08.049Z,4.28
2019-03-15T23:40:35.955Z,4.67
2019-03-15T23:43:03.915Z,4.35
2019-03-15T23:45:31.845Z,4.92
2019-03-15T23:47:59.952Z,3.98
2019-03-15T23:50:27.901Z,4.05
2019-03-15T23:52:55.925Z,4.37
2019-03-15T23:55:23.861Z,3.65
2019-03-15T23:57:51.801Z,4.47
